sensor_id;sensor_type;location;lat;lon;timestamp;P1;durP1;ratioP1;P2;durP2;ratioP2
39970;SDS011;35425;51.142;17.178;2022-11-21T00:00:21;13.30;;;10.63;;
39970;SDS011;35425;51.142;17.178;2022-11-21T00:02:48;14.57;;;10.88;;
39970;SDS011;35425;51.142;17.178;2022-11-21T00:05:14;14.18;;;10.50;;
39970;SDS011;35425;51.142;17.178;2022-11-21T00:07:41;13.52;;;9.88;;
39970;SDS011;35425;51.142;17.178;2022-11-21T00:10:08;15.30;;;11.00;;
39970;SDS011;35425;51.142;17.178;2022-11-21T00:12:35;13.48;;;10.35;;
39970;SDS011;35425;51.142;17.178;2022-11-21T00:15:01;13.70;;;10.38;;
39970;SDS011;35425;51.142;17.178;2022-11-21T00:17:28;14.23;;;11.10;;
39970;SDS011;35425;51.142;17.178;2022-11-21T00:19:54;12.48;;;10.63;;
39970;SDS011;35425;51.142;17.178;2022-11-21T00:22:20;15.07;;;11.40;;
39970;SDS011;35425;51.142;17.178;2022-11-21T00:24:47;14.07;;;11.00;;
39970;SDS011;35425;51.142;17.178;2022-11-21T00:27:19;14.45;;;11.05;;
39970;SDS011;35425;51.142;17.178;2022-11-21T00:29:45;13.35;;;10.77;;
39970;SDS011;35425;51.142;17.178;2022-11-21T00:32:12;12.48;;;10.80;;
39970;SDS011;35425;51.142;17.178;2022-11-21T00:34:38;13.43;;;11.10;;
39970;SDS011;35425;51.142;17.178;2022-11-21T00:37:05;14.57;;;10.73;;
39970;SDS011;35425;51.142;17.178;2022-11-21T00:39:31;14.45;;;11.35;;
39970;SDS011;35425;51.142;17.178;2022-11-21T00:41:58;13.95;;;11.10;;
39970;SDS011;35425;51.142;17.178;2022-11-21T00:44:24;13.65;;;10.98;;
39970;SDS011;35425;51.142;17.178;2022-11-21T00:46:51;14.00;;;10.88;;
39970;SDS011;35425;51.142;17.178;2022-11-21T00:49:17;14.65;;;11.05;;
39970;SDS011;35425;51.142;17.178;2022-11-21T00:51:44;13.88;;;11.50;;
39970;SDS011;35425;51.142;17.178;2022-11-21T00:54:10;13.85;;;11.05;;
39970;SDS011;35425;51.142;17.178;2022-11-21T00:56:37;14.43;;;11.15;;
39970;SDS011;35425;51.142;17.178;2022-11-21T00:59:03;13.80;;;11.27;;
39970;SDS011;35425;51.142;17.178;2022-11-21T01:01:30;16.30;;;12.45;;
39970;SDS011;35425;51.142;17.178;2022-11-21T01:03:57;14.35;;;10.95;;
39970;SDS011;35425;51.142;17.178;2022-11-21T01:06:23;15.05;;;11.13;;
39970;SDS011;35425;51.142;17.178;2022-11-21T01:08:50;12.95;;;10.70;;
39970;SDS011;35425;51.142;17.178;2022-11-21T01:11:17;13.40;;;11.10;;
39970;SDS011;35425;51.142;17.178;2022-11-21T01:13:44;13.88;;;11.20;;
39970;SDS011;35425;51.142;17.178;2022-11-21T01:16:16;13.30;;;10.38;;
39970;SDS011;35425;51.142;17.178;2022-11-21T01:18:43;14.25;;;11.25;;
39970;SDS011;35425;51.142;17.178;2022-11-21T01:23:39;13.88;;;10.52;;
39970;SDS011;35425;51.142;17.178;2022-11-21T01:26:08;14.35;;;10.82;;
39970;SDS011;35425;51.142;17.178;2022-11-21T01:28:34;13.38;;;10.43;;
39970;SDS011;35425;51.142;17.178;2022-11-21T01:31:02;14.27;;;10.48;;
39970;SDS011;35425;51.142;17.178;2022-11-21T01:33:29;14.23;;;10.70;;
39970;SDS011;35425;51.142;17.178;2022-11-21T01:35:55;14.85;;;10.50;;
39970;SDS011;35425;51.142;17.178;2022-11-21T01:38:22;12.85;;;9.98;;
39970;SDS011;35425;51.142;17.178;2022-11-21T01:40:48;12.60;;;10.20;;
39970;SDS011;35425;51.142;17.178;2022-11-21T01:43:15;13.55;;;10.60;;
39970;SDS011;35425;51.142;17.178;2022-11-21T01:48:17;12.70;;;9.98;;
39970;SDS011;35425;51.142;17.178;2022-11-21T01:50:43;12.55;;;10.00;;
39970;SDS011;35425;51.142;17.178;2022-11-21T01:53:10;14.18;;;10.80;;
39970;SDS011;35425;51.142;17.178;2022-11-21T01:55:37;13.50;;;10.45;;
39970;SDS011;35425;51.142;17.178;2022-11-21T01:58:03;12.48;;;9.40;;
39970;SDS011;35425;51.142;17.178;2022-11-21T02:00:31;11.98;;;9.73;;
39970;SDS011;35425;51.142;17.178;2022-11-21T02:03:01;13.23;;;9.77;;
39970;SDS011;35425;51.142;17.178;2022-11-21T02:05:30;12.60;;;9.63;;
39970;SDS011;35425;51.142;17.178;2022-11-21T02:08:01;13.48;;;9.80;;
39970;SDS011;35425;51.142;17.178;2022-11-21T02:10:28;13.52;;;10.52;;
39970;SDS011;35425;51.142;17.178;2022-11-21T02:12:55;13.30;;;10.02;;
39970;SDS011;35425;51.142;17.178;2022-11-21T02:15:23;12.10;;;9.52;;
39970;SDS011;35425;51.142;17.178;2022-11-21T02:17:50;11.23;;;9.13;;
39970;SDS011;35425;51.142;17.178;2022-11-21T02:20:18;10.43;;;8.82;;
39970;SDS011;35425;51.142;17.178;2022-11-21T02:25:13;12.77;;;9.88;;
39970;SDS011;35425;51.142;17.178;2022-11-21T02:27:40;11.93;;;9.00;;
39970;SDS011;35425;51.142;17.178;2022-11-21T02:30:07;12.07;;;9.40;;
39970;SDS011;35425;51.142;17.178;2022-11-21T02:32:38;11.77;;;9.32;;
39970;SDS011;35425;51.142;17.178;2022-11-21T02:35:05;11.07;;;9.15;;
39970;SDS011;35425;51.142;17.178;2022-11-21T02:37:32;11.73;;;8.98;;
39970;SDS011;35425;51.142;17.178;2022-11-21T02:40:00;11.02;;;8.80;;
39970;SDS011;35425;51.142;17.178;2022-11-21T02:42:41;11.82;;;8.93;;
39970;SDS011;35425;51.142;17.178;2022-11-21T02:45:13;11.13;;;8.38;;
39970;SDS011;35425;51.142;17.178;2022-11-21T02:47:41;10.75;;;8.68;;
39970;SDS011;35425;51.142;17.178;2022-11-21T02:52:34;10.15;;;8.15;;
39970;SDS011;35425;51.142;17.178;2022-11-21T02:55:01;10.00;;;7.90;;
39970;SDS011;35425;51.142;17.178;2022-11-21T02:57:27;10.60;;;8.43;;
39970;SDS011;35425;51.142;17.178;2022-11-21T02:59:53;10.40;;;7.97;;
39970;SDS011;35425;51.142;17.178;2022-11-21T03:02:20;10.30;;;8.55;;
39970;SDS011;35425;51.142;17.178;2022-11-21T03:04:46;10.95;;;8.38;;
39970;SDS011;35425;51.142;17.178;2022-11-21T03:07:13;10.43;;;8.32;;
39970;SDS011;35425;51.142;17.178;2022-11-21T03:09:40;9.15;;;7.35;;
39970;SDS011;35425;51.142;17.178;2022-11-21T03:12:06;10.45;;;8.25;;
39970;SDS011;35425;51.142;17.178;2022-11-21T03:14:33;9.65;;;7.70;;
39970;SDS011;35425;51.142;17.178;2022-11-21T03:17:00;11.00;;;8.05;;
39970;SDS011;35425;51.142;17.178;2022-11-21T03:19:26;10.00;;;7.95;;
39970;SDS011;35425;51.142;17.178;2022-11-21T03:21:53;10.70;;;8.43;;
39970;SDS011;35425;51.142;17.178;2022-11-21T03:24:19;9.45;;;7.70;;
39970;SDS011;35425;51.142;17.178;2022-11-21T03:26:46;10.43;;;7.78;;
39970;SDS011;35425;51.142;17.178;2022-11-21T03:29:12;10.35;;;7.68;;
39970;SDS011;35425;51.142;17.178;2022-11-21T03:31:39;10.30;;;8.57;;
39970;SDS011;35425;51.142;17.178;2022-11-21T03:34:05;9.82;;;7.95;;
39970;SDS011;35425;51.142;17.178;2022-11-21T03:36:32;9.38;;;8.00;;
39970;SDS011;35425;51.142;17.178;2022-11-21T03:38:58;8.43;;;7.28;;
39970;SDS011;35425;51.142;17.178;2022-11-21T03:41:25;10.02;;;8.00;;
39970;SDS011;35425;51.142;17.178;2022-11-21T03:43:59;10.05;;;7.95;;
39970;SDS011;35425;51.142;17.178;2022-11-21T03:46:26;10.60;;;7.95;;
39970;SDS011;35425;51.142;17.178;2022-11-21T03:48:53;10.70;;;8.00;;
39970;SDS011;35425;51.142;17.178;2022-11-21T03:51:20;10.30;;;8.18;;
39970;SDS011;35425;51.142;17.178;2022-11-21T03:53:46;9.57;;;7.40;;
39970;SDS011;35425;51.142;17.178;2022-11-21T03:56:13;9.57;;;7.65;;
39970;SDS011;35425;51.142;17.178;2022-11-21T03:58:39;10.02;;;7.70;;
39970;SDS011;35425;51.142;17.178;2022-11-21T04:01:07;8.90;;;7.75;;
39970;SDS011;35425;51.142;17.178;2022-11-21T04:03:33;9.45;;;8.07;;
39970;SDS011;35425;51.142;17.178;2022-11-21T04:06:00;8.90;;;7.38;;
39970;SDS011;35425;51.142;17.178;2022-11-21T04:08:27;9.35;;;8.05;;
39970;SDS011;35425;51.142;17.178;2022-11-21T04:10:53;9.90;;;7.72;;
39970;SDS011;35425;51.142;17.178;2022-11-21T04:13:20;9.10;;;7.70;;
39970;SDS011;35425;51.142;17.178;2022-11-21T04:15:46;9.43;;;6.90;;
39970;SDS011;35425;51.142;17.178;2022-11-21T04:18:13;9.30;;;7.15;;
39970;SDS011;35425;51.142;17.178;2022-11-21T04:20:39;9.18;;;7.57;;
39970;SDS011;35425;51.142;17.178;2022-11-21T04:23:06;9.63;;;7.72;;
39970;SDS011;35425;51.142;17.178;2022-11-21T04:25:32;9.27;;;7.18;;
39970;SDS011;35425;51.142;17.178;2022-11-21T04:27:59;10.52;;;8.10;;
39970;SDS011;35425;51.142;17.178;2022-11-21T04:30:27;9.52;;;7.25;;
39970;SDS011;35425;51.142;17.178;2022-11-21T04:32:53;9.20;;;7.20;;
39970;SDS011;35425;51.142;17.178;2022-11-21T04:35:20;8.38;;;6.65;;
39970;SDS011;35425;51.142;17.178;2022-11-21T04:37:47;8.63;;;6.70;;
39970;SDS011;35425;51.142;17.178;2022-11-21T04:40:14;9.13;;;7.03;;
39970;SDS011;35425;51.142;17.178;2022-11-21T04:42:43;9.07;;;7.57;;
39970;SDS011;35425;51.142;17.178;2022-11-21T04:45:10;9.82;;;7.57;;
39970;SDS011;35425;51.142;17.178;2022-11-21T04:47:41;8.40;;;7.07;;
39970;SDS011;35425;51.142;17.178;2022-11-21T04:50:08;8.82;;;7.28;;
39970;SDS011;35425;51.142;17.178;2022-11-21T04:52:35;9.13;;;7.53;;
39970;SDS011;35425;51.142;17.178;2022-11-21T04:55:01;8.18;;;7.10;;
39970;SDS011;35425;51.142;17.178;2022-11-21T04:57:28;8.63;;;6.68;;
39970;SDS011;35425;51.142;17.178;2022-11-21T04:59:55;9.13;;;6.85;;
39970;SDS011;35425;51.142;17.178;2022-11-21T05:02:22;8.55;;;6.88;;
39970;SDS011;35425;51.142;17.178;2022-11-21T05:04:48;8.85;;;7.13;;
39970;SDS011;35425;51.142;17.178;2022-11-21T05:07:15;8.60;;;7.28;;
39970;SDS011;35425;51.142;17.178;2022-11-21T05:09:42;9.13;;;6.90;;
39970;SDS011;35425;51.142;17.178;2022-11-21T05:12:09;8.20;;;6.28;;
39970;SDS011;35425;51.142;17.178;2022-11-21T05:14:54;8.60;;;7.13;;
39970;SDS011;35425;51.142;17.178;2022-11-21T05:17:21;9.50;;;7.13;;
39970;SDS011;35425;51.142;17.178;2022-11-21T05:19:48;8.05;;;6.70;;
39970;SDS011;35425;51.142;17.178;2022-11-21T05:22:14;9.45;;;7.38;;
39970;SDS011;35425;51.142;17.178;2022-11-21T05:24:40;8.15;;;6.43;;
39970;SDS011;35425;51.142;17.178;2022-11-21T05:27:07;8.75;;;6.63;;
39970;SDS011;35425;51.142;17.178;2022-11-21T05:29:33;8.75;;;6.90;;
39970;SDS011;35425;51.142;17.178;2022-11-21T05:32:01;8.52;;;6.30;;
39970;SDS011;35425;51.142;17.178;2022-11-21T05:34:27;8.80;;;6.78;;
39970;SDS011;35425;51.142;17.178;2022-11-21T05:36:54;7.57;;;6.30;;
39970;SDS011;35425;51.142;17.178;2022-11-21T05:39:24;8.52;;;6.72;;
39970;SDS011;35425;51.142;17.178;2022-11-21T05:41:50;7.63;;;6.10;;
39970;SDS011;35425;51.142;17.178;2022-11-21T05:44:17;7.60;;;6.40;;
39970;SDS011;35425;51.142;17.178;2022-11-21T05:46:44;7.97;;;6.60;;
39970;SDS011;35425;51.142;17.178;2022-11-21T05:49:10;7.13;;;5.57;;
39970;SDS011;35425;51.142;17.178;2022-11-21T05:51:37;8.15;;;6.70;;
39970;SDS011;35425;51.142;17.178;2022-11-21T05:54:04;8.50;;;7.03;;
39970;SDS011;35425;51.142;17.178;2022-11-21T05:56:30;8.23;;;6.35;;
39970;SDS011;35425;51.142;17.178;2022-11-21T05:58:57;7.32;;;6.28;;
39970;SDS011;35425;51.142;17.178;2022-11-21T06:01:24;6.80;;;6.00;;
39970;SDS011;35425;51.142;17.178;2022-11-21T06:04:09;7.20;;;6.25;;
39970;SDS011;35425;51.142;17.178;2022-11-21T06:06:35;7.88;;;6.63;;
39970;SDS011;35425;51.142;17.178;2022-11-21T06:09:03;9.02;;;6.50;;
39970;SDS011;35425;51.142;17.178;2022-11-21T06:11:29;9.23;;;6.50;;
39970;SDS011;35425;51.142;17.178;2022-11-21T06:13:56;8.32;;;6.25;;
39970;SDS011;35425;51.142;17.178;2022-11-21T06:16:22;7.07;;;5.93;;
39970;SDS011;35425;51.142;17.178;2022-11-21T06:18:49;7.22;;;5.78;;
39970;SDS011;35425;51.142;17.178;2022-11-21T06:21:24;7.50;;;6.00;;
39970;SDS011;35425;51.142;17.178;2022-11-21T06:23:52;7.82;;;6.72;;
39970;SDS011;35425;51.142;17.178;2022-11-21T06:26:19;8.15;;;6.70;;
39970;SDS011;35425;51.142;17.178;2022-11-21T06:28:46;7.45;;;6.00;;
39970;SDS011;35425;51.142;17.178;2022-11-21T06:31:17;7.65;;;6.20;;
39970;SDS011;35425;51.142;17.178;2022-11-21T06:33:44;7.93;;;6.68;;
39970;SDS011;35425;51.142;17.178;2022-11-21T06:36:12;8.07;;;6.38;;
39970;SDS011;35425;51.142;17.178;2022-11-21T06:38:38;6.97;;;6.05;;
39970;SDS011;35425;51.142;17.178;2022-11-21T06:41:05;6.68;;;5.97;;
39970;SDS011;35425;51.142;17.178;2022-11-21T06:43:32;7.07;;;6.20;;
39970;SDS011;35425;51.142;17.178;2022-11-21T06:45:59;7.22;;;6.25;;
39970;SDS011;35425;51.142;17.178;2022-11-21T06:48:28;7.63;;;6.13;;
39970;SDS011;35425;51.142;17.178;2022-11-21T06:50:55;8.82;;;7.05;;
39970;SDS011;35425;51.142;17.178;2022-11-21T06:53:21;8.68;;;6.43;;
39970;SDS011;35425;51.142;17.178;2022-11-21T06:55:48;8.27;;;6.45;;
39970;SDS011;35425;51.142;17.178;2022-11-21T06:58:15;6.65;;;5.95;;
39970;SDS011;35425;51.142;17.178;2022-11-21T07:00:41;7.10;;;6.38;;
39970;SDS011;35425;51.142;17.178;2022-11-21T07:03:09;7.80;;;5.88;;
39970;SDS011;35425;51.142;17.178;2022-11-21T07:05:36;6.90;;;5.82;;
39970;SDS011;35425;51.142;17.178;2022-11-21T07:08:02;7.68;;;6.43;;
39970;SDS011;35425;51.142;17.178;2022-11-21T07:10:34;7.95;;;6.57;;
39970;SDS011;35425;51.142;17.178;2022-11-21T07:13:01;8.20;;;6.22;;
39970;SDS011;35425;51.142;17.178;2022-11-21T07:15:46;8.13;;;5.78;;
39970;SDS011;35425;51.142;17.178;2022-11-21T07:18:13;8.27;;;6.32;;
39970;SDS011;35425;51.142;17.178;2022-11-21T07:20:39;8.10;;;5.95;;
39970;SDS011;35425;51.142;17.178;2022-11-21T07:23:06;7.75;;;6.00;;
39970;SDS011;35425;51.142;17.178;2022-11-21T07:25:33;6.55;;;5.75;;
39970;SDS011;35425;51.142;17.178;2022-11-21T07:28:02;6.65;;;5.75;;
39970;SDS011;35425;51.142;17.178;2022-11-21T07:30:29;6.93;;;5.72;;
39970;SDS011;35425;51.142;17.178;2022-11-21T07:32:59;7.63;;;6.20;;
39970;SDS011;35425;51.142;17.178;2022-11-21T07:35:26;6.60;;;5.65;;
39970;SDS011;35425;51.142;17.178;2022-11-21T07:37:52;7.93;;;6.45;;
39970;SDS011;35425;51.142;17.178;2022-11-21T07:40:19;8.27;;;6.47;;
39970;SDS011;35425;51.142;17.178;2022-11-21T07:42:46;7.05;;;5.38;;
39970;SDS011;35425;51.142;17.178;2022-11-21T07:45:13;8.90;;;5.97;;
39970;SDS011;35425;51.142;17.178;2022-11-21T07:47:40;8.88;;;6.18;;
39970;SDS011;35425;51.142;17.178;2022-11-21T07:50:07;8.02;;;6.00;;
39970;SDS011;35425;51.142;17.178;2022-11-21T07:52:34;7.63;;;6.10;;
39970;SDS011;35425;51.142;17.178;2022-11-21T07:55:00;7.45;;;5.93;;
39970;SDS011;35425;51.142;17.178;2022-11-21T07:57:31;8.23;;;6.50;;
39970;SDS011;35425;51.142;17.178;2022-11-21T07:59:57;7.60;;;5.88;;
39970;SDS011;35425;51.142;17.178;2022-11-21T08:02:24;7.10;;;5.88;;
39970;SDS011;35425;51.142;17.178;2022-11-21T08:04:51;7.88;;;6.28;;
39970;SDS011;35425;51.142;17.178;2022-11-21T08:07:19;8.35;;;6.90;;
39970;SDS011;35425;51.142;17.178;2022-11-21T08:09:46;7.53;;;6.05;;
39970;SDS011;35425;51.142;17.178;2022-11-21T08:12:12;7.30;;;6.10;;
39970;SDS011;35425;51.142;17.178;2022-11-21T08:14:39;8.02;;;6.60;;
39970;SDS011;35425;51.142;17.178;2022-11-21T08:17:05;8.25;;;6.22;;
39970;SDS011;35425;51.142;17.178;2022-11-21T08:19:32;10.50;;;6.95;;
39970;SDS011;35425;51.142;17.178;2022-11-21T08:21:59;8.00;;;6.60;;
39970;SDS011;35425;51.142;17.178;2022-11-21T08:24:25;9.25;;;6.85;;
39970;SDS011;35425;51.142;17.178;2022-11-21T08:26:52;8.20;;;5.93;;
39970;SDS011;35425;51.142;17.178;2022-11-21T08:29:19;9.00;;;6.50;;
39970;SDS011;35425;51.142;17.178;2022-11-21T08:31:45;7.30;;;6.20;;
39970;SDS011;35425;51.142;17.178;2022-11-21T08:34:11;7.32;;;5.80;;
39970;SDS011;35425;51.142;17.178;2022-11-21T08:36:39;7.80;;;6.10;;
39970;SDS011;35425;51.142;17.178;2022-11-21T08:39:06;7.07;;;5.72;;
39970;SDS011;35425;51.142;17.178;2022-11-21T08:41:32;7.82;;;6.13;;
39970;SDS011;35425;51.142;17.178;2022-11-21T08:44:17;7.40;;;6.25;;
39970;SDS011;35425;51.142;17.178;2022-11-21T08:46:44;8.00;;;6.45;;
39970;SDS011;35425;51.142;17.178;2022-11-21T08:49:10;7.38;;;6.28;;
39970;SDS011;35425;51.142;17.178;2022-11-21T08:51:37;7.70;;;5.82;;
39970;SDS011;35425;51.142;17.178;2022-11-21T08:54:03;8.38;;;6.63;;
39970;SDS011;35425;51.142;17.178;2022-11-21T08:56:29;7.55;;;6.38;;
39970;SDS011;35425;51.142;17.178;2022-11-21T08:58:56;6.85;;;5.82;;
39970;SDS011;35425;51.142;17.178;2022-11-21T09:01:22;7.30;;;5.80;;
39970;SDS011;35425;51.142;17.178;2022-11-21T09:03:49;6.10;;;5.40;;
39970;SDS011;35425;51.142;17.178;2022-11-21T09:06:15;6.68;;;5.43;;
39970;SDS011;35425;51.142;17.178;2022-11-21T09:08:42;7.10;;;5.60;;
39970;SDS011;35425;51.142;17.178;2022-11-21T09:11:08;6.95;;;5.97;;
39970;SDS011;35425;51.142;17.178;2022-11-21T09:13:35;7.68;;;6.03;;
39970;SDS011;35425;51.142;17.178;2022-11-21T09:16:02;6.78;;;4.97;;
39970;SDS011;35425;51.142;17.178;2022-11-21T09:18:47;7.43;;;5.45;;
39970;SDS011;35425;51.142;17.178;2022-11-21T09:21:16;6.60;;;5.65;;
39970;SDS011;35425;51.142;17.178;2022-11-21T09:23:43;7.25;;;5.47;;
39970;SDS011;35425;51.142;17.178;2022-11-21T09:26:10;6.90;;;5.53;;
39970;SDS011;35425;51.142;17.178;2022-11-21T09:28:37;7.47;;;5.70;;
39970;SDS011;35425;51.142;17.178;2022-11-21T09:31:04;7.90;;;5.88;;
39970;SDS011;35425;51.142;17.178;2022-11-21T09:33:30;7.03;;;5.38;;
39970;SDS011;35425;51.142;17.178;2022-11-21T09:35:57;6.88;;;5.57;;
39970;SDS011;35425;51.142;17.178;2022-11-21T09:38:24;6.20;;;4.90;;
39970;SDS011;35425;51.142;17.178;2022-11-21T09:40:54;6.63;;;5.00;;
39970;SDS011;35425;51.142;17.178;2022-11-21T09:43:43;6.13;;;5.10;;
39970;SDS011;35425;51.142;17.178;2022-11-21T09:46:18;6.75;;;5.28;;
39970;SDS011;35425;51.142;17.178;2022-11-21T09:48:55;6.55;;;4.72;;
39970;SDS011;35425;51.142;17.178;2022-11-21T09:51:24;6.63;;;4.93;;
39970;SDS011;35425;51.142;17.178;2022-11-21T09:53:56;6.65;;;4.95;;
39970;SDS011;35425;51.142;17.178;2022-11-21T09:56:23;7.57;;;5.13;;
39970;SDS011;35425;51.142;17.178;2022-11-21T09:59:34;6.47;;;5.05;;
39970;SDS011;35425;51.142;17.178;2022-11-21T10:01:41;6.13;;;4.70;;
39970;SDS011;35425;51.142;17.178;2022-11-21T10:04:07;6.43;;;5.13;;
39970;SDS011;35425;51.142;17.178;2022-11-21T10:06:41;6.18;;;5.03;;
39970;SDS011;35425;51.142;17.178;2022-11-21T10:14:53;5.55;;;4.28;;
39970;SDS011;35425;51.142;17.178;2022-11-21T10:17:27;5.90;;;4.13;;
39970;SDS011;35425;51.142;17.178;2022-11-21T10:20:19;6.63;;;4.75;;
39970;SDS011;35425;51.142;17.178;2022-11-21T10:25:22;6.90;;;4.93;;
39970;SDS011;35425;51.142;17.178;2022-11-21T10:27:56;5.40;;;4.35;;
39970;SDS011;35425;51.142;17.178;2022-11-21T10:30:25;5.45;;;3.85;;
39970;SDS011;35425;51.142;17.178;2022-11-21T10:32:53;5.18;;;4.28;;
39970;SDS011;35425;51.142;17.178;2022-11-21T10:35:22;4.65;;;4.00;;
39970;SDS011;35425;51.142;17.178;2022-11-21T10:38:00;6.35;;;4.43;;
39970;SDS011;35425;51.142;17.178;2022-11-21T10:40:43;5.38;;;3.88;;
39970;SDS011;35425;51.142;17.178;2022-11-21T10:43:25;5.60;;;4.35;;
39970;SDS011;35425;51.142;17.178;2022-11-21T10:46:14;6.07;;;4.13;;
39970;SDS011;35425;51.142;17.178;2022-11-21T10:48:40;5.60;;;4.25;;
39970;SDS011;35425;51.142;17.178;2022-11-21T10:54:02;5.22;;;3.90;;
39970;SDS011;35425;51.142;17.178;2022-11-21T10:56:47;5.13;;;4.18;;
39970;SDS011;35425;51.142;17.178;2022-11-21T10:59:19;4.70;;;3.80;;
39970;SDS011;35425;51.142;17.178;2022-11-21T11:02:02;5.85;;;3.70;;
39970;SDS011;35425;51.142;17.178;2022-11-21T11:04:46;4.93;;;4.00;;
39970;SDS011;35425;51.142;17.178;2022-11-21T11:07:25;5.78;;;4.15;;
39970;SDS011;35425;51.142;17.178;2022-11-21T11:09:51;6.32;;;3.53;;
39970;SDS011;35425;51.142;17.178;2022-11-21T11:12:22;4.85;;;4.00;;
39970;SDS011;35425;51.142;17.178;2022-11-21T11:17:24;5.05;;;3.15;;
39970;SDS011;35425;51.142;17.178;2022-11-21T11:20:01;4.63;;;3.67;;
39970;SDS011;35425;51.142;17.178;2022-11-21T11:22:28;4.93;;;3.72;;
39970;SDS011;35425;51.142;17.178;2022-11-21T11:24:55;4.57;;;3.85;;
39970;SDS011;35425;51.142;17.178;2022-11-21T11:27:27;4.50;;;3.60;;
39970;SDS011;35425;51.142;17.178;2022-11-21T11:29:53;4.65;;;3.83;;
39970;SDS011;35425;51.142;17.178;2022-11-21T11:32:20;4.45;;;3.70;;
39970;SDS011;35425;51.142;17.178;2022-11-21T11:34:57;6.15;;;3.28;;
39970;SDS011;35425;51.142;17.178;2022-11-21T11:37:41;6.40;;;3.58;;
39970;SDS011;35425;51.142;17.178;2022-11-21T11:48:43;10.70;;;4.13;;
39970;SDS011;35425;51.142;17.178;2022-11-21T11:51:33;23.27;;;5.70;;
39970;SDS011;35425;51.142;17.178;2022-11-21T11:54:03;18.95;;;5.22;;
39970;SDS011;35425;51.142;17.178;2022-11-21T11:56:33;26.77;;;5.60;;
39970;SDS011;35425;51.142;17.178;2022-11-21T12:04:04;19.10;;;4.13;;
39970;SDS011;35425;51.142;17.178;2022-11-21T12:06:33;14.88;;;3.58;;
39970;SDS011;35425;51.142;17.178;2022-11-21T12:15:09;8.27;;;3.63;;
39970;SDS011;35425;51.142;17.178;2022-11-21T12:23:30;9.40;;;3.33;;
39970;SDS011;35425;51.142;17.178;2022-11-21T12:47:52;4.43;;;2.60;;
39970;SDS011;35425;51.142;17.178;2022-11-21T12:53:38;3.28;;;2.63;;
39970;SDS011;35425;51.142;17.178;2022-11-21T12:59:03;6.40;;;2.90;;
39970;SDS011;35425;51.142;17.178;2022-11-21T13:01:34;4.68;;;2.65;;
39970;SDS011;35425;51.142;17.178;2022-11-21T13:04:26;4.85;;;3.00;;
39970;SDS011;35425;51.142;17.178;2022-11-21T13:06:50;4.55;;;2.83;;
39970;SDS011;35425;51.142;17.178;2022-11-21T13:09:19;4.53;;;3.00;;
39970;SDS011;35425;51.142;17.178;2022-11-21T13:12:01;4.05;;;2.97;;
39970;SDS011;35425;51.142;17.178;2022-11-21T13:25:03;4.35;;;2.97;;
39970;SDS011;35425;51.142;17.178;2022-11-21T13:32:39;4.03;;;2.45;;
39970;SDS011;35425;51.142;17.178;2022-11-21T13:45:59;4.30;;;2.95;;
39970;SDS011;35425;51.142;17.178;2022-11-21T13:51:06;3.75;;;2.75;;
39970;SDS011;35425;51.142;17.178;2022-11-21T13:56:24;3.22;;;2.45;;
39970;SDS011;35425;51.142;17.178;2022-11-21T13:58:51;3.25;;;2.38;;
39970;SDS011;35425;51.142;17.178;2022-11-21T14:01:33;4.05;;;2.88;;
39970;SDS011;35425;51.142;17.178;2022-11-21T14:04:10;3.55;;;2.55;;
39970;SDS011;35425;51.142;17.178;2022-11-21T14:06:42;3.63;;;3.03;;
39970;SDS011;35425;51.142;17.178;2022-11-21T14:11:43;3.30;;;2.63;;
39970;SDS011;35425;51.142;17.178;2022-11-21T14:16:53;3.53;;;2.70;;
39970;SDS011;35425;51.142;17.178;2022-11-21T14:19:23;3.55;;;2.70;;
39970;SDS011;35425;51.142;17.178;2022-11-21T14:21:50;3.05;;;2.40;;
39970;SDS011;35425;51.142;17.178;2022-11-21T14:24:17;3.78;;;3.08;;
39970;SDS011;35425;51.142;17.178;2022-11-21T14:26:45;3.60;;;2.70;;
39970;SDS011;35425;51.142;17.178;2022-11-21T14:29:26;3.80;;;2.67;;
39970;SDS011;35425;51.142;17.178;2022-11-21T14:31:53;3.63;;;2.92;;
39970;SDS011;35425;51.142;17.178;2022-11-21T14:34:24;3.90;;;3.08;;
39970;SDS011;35425;51.142;17.178;2022-11-21T14:36:53;3.63;;;2.70;;
39970;SDS011;35425;51.142;17.178;2022-11-21T14:39:21;3.53;;;2.67;;
39970;SDS011;35425;51.142;17.178;2022-11-21T14:42:14;3.15;;;2.80;;
39970;SDS011;35425;51.142;17.178;2022-11-21T14:44:41;2.90;;;2.50;;
39970;SDS011;35425;51.142;17.178;2022-11-21T14:47:17;3.10;;;2.53;;
39970;SDS011;35425;51.142;17.178;2022-11-21T14:49:51;3.30;;;2.72;;
39970;SDS011;35425;51.142;17.178;2022-11-21T14:52:20;3.58;;;3.17;;
39970;SDS011;35425;51.142;17.178;2022-11-21T14:54:49;3.28;;;2.95;;
39970;SDS011;35425;51.142;17.178;2022-11-21T14:57:37;4.47;;;3.20;;
39970;SDS011;35425;51.142;17.178;2022-11-21T15:00:05;3.22;;;2.90;;
39970;SDS011;35425;51.142;17.178;2022-11-21T15:02:32;3.47;;;3.00;;
39970;SDS011;35425;51.142;17.178;2022-11-21T15:05:00;3.50;;;3.20;;
39970;SDS011;35425;51.142;17.178;2022-11-21T15:07:28;4.75;;;3.33;;
39970;SDS011;35425;51.142;17.178;2022-11-21T15:09:59;3.67;;;3.17;;
39970;SDS011;35425;51.142;17.178;2022-11-21T15:17:58;3.95;;;3.30;;
39970;SDS011;35425;51.142;17.178;2022-11-21T15:20:47;3.80;;;3.35;;
39970;SDS011;35425;51.142;17.178;2022-11-21T15:23:30;3.85;;;3.30;;
39970;SDS011;35425;51.142;17.178;2022-11-21T15:25:57;3.60;;;3.20;;
39970;SDS011;35425;51.142;17.178;2022-11-21T15:28:52;3.88;;;3.13;;
39970;SDS011;35425;51.142;17.178;2022-11-21T15:31:19;3.85;;;3.33;;
39970;SDS011;35425;51.142;17.178;2022-11-21T15:34:02;3.75;;;3.17;;
39970;SDS011;35425;51.142;17.178;2022-11-21T15:37:10;3.88;;;3.35;;
39970;SDS011;35425;51.142;17.178;2022-11-21T15:39:41;4.28;;;3.50;;
39970;SDS011;35425;51.142;17.178;2022-11-21T15:44:57;4.07;;;3.47;;
39970;SDS011;35425;51.142;17.178;2022-11-21T15:47:23;4.10;;;3.50;;
39970;SDS011;35425;51.142;17.178;2022-11-21T15:49:51;4.75;;;3.80;;
39970;SDS011;35425;51.142;17.178;2022-11-21T15:52:17;5.78;;;3.97;;
39970;SDS011;35425;51.142;17.178;2022-11-21T15:54:44;4.47;;;3.90;;
39970;SDS011;35425;51.142;17.178;2022-11-21T15:57:10;5.07;;;4.05;;
39970;SDS011;35425;51.142;17.178;2022-11-21T15:59:37;5.45;;;4.50;;
39970;SDS011;35425;51.142;17.178;2022-11-21T16:02:04;5.15;;;4.35;;
39970;SDS011;35425;51.142;17.178;2022-11-21T16:04:30;5.03;;;4.30;;
39970;SDS011;35425;51.142;17.178;2022-11-21T16:06:57;5.03;;;4.50;;
39970;SDS011;35425;51.142;17.178;2022-11-21T16:09:23;4.93;;;4.20;;
39970;SDS011;35425;51.142;17.178;2022-11-21T16:11:50;5.68;;;4.47;;
39970;SDS011;35425;51.142;17.178;2022-11-21T16:14:17;4.63;;;4.05;;
39970;SDS011;35425;51.142;17.178;2022-11-21T16:16:43;5.43;;;4.00;;
39970;SDS011;35425;51.142;17.178;2022-11-21T16:19:10;4.70;;;4.13;;
39970;SDS011;35425;51.142;17.178;2022-11-21T16:21:37;5.10;;;4.40;;
39970;SDS011;35425;51.142;17.178;2022-11-21T16:24:04;6.03;;;4.55;;
39970;SDS011;35425;51.142;17.178;2022-11-21T16:26:31;5.07;;;3.85;;
39970;SDS011;35425;51.142;17.178;2022-11-21T16:28:59;5.25;;;4.45;;
39970;SDS011;35425;51.142;17.178;2022-11-21T16:31:29;5.15;;;4.20;;
39970;SDS011;35425;51.142;17.178;2022-11-21T16:33:56;5.93;;;4.50;;
39970;SDS011;35425;51.142;17.178;2022-11-21T16:36:25;5.97;;;3.83;;
39970;SDS011;35425;51.142;17.178;2022-11-21T16:38:51;4.68;;;3.78;;
39970;SDS011;35425;51.142;17.178;2022-11-21T16:41:19;5.90;;;4.43;;